createdAt,value
2018-11-22T00:01:58.695Z,-0.20
2018-11-22T00:04:39.917Z,-0.20
2018-11-22T00:07:21.228Z,-0.30
2018-11-22T00:10:02.726Z,-0.20
2018-11-22T00:12:43.658Z,-0.40
2018-11-22T00:15:25.346Z,-0.50
2018-11-22T00:18:06.959Z,-1.90
2018-11-22T00:20:48.301Z,-0.70
2018-11-22T00:23:30.061Z,-0.70
2018-11-22T00:26:11.275Z,-0.80
2018-11-22T00:28:52.892Z,-0.80
2018-11-22T00:31:34.552Z,-1.00
2018-11-22T00:34:15.820Z,-1.30
2018-11-22T00:36:57.515Z,-1.10
2018-11-22T00:39:38.973Z,-1.00
2018-11-22T00:42:20.562Z,-1.00
2018-11-22T00:45:01.851Z,-0.90
2018-11-22T00:47:43.149Z,-0.90
2018-11-22T00:50:24.108Z,-0.90
2018-11-22T00:53:05.566Z,-0.90
2018-11-22T00:55:46.864Z,-0.90
2018-11-22T00:58:27.939Z,-0.90
2018-11-22T01:01:09.557Z,-0.90
2018-11-22T01:03:50.404Z,-0.90
2018-11-22T01:06:31.589Z,-0.70
2018-11-22T01:09:14.037Z,-0.70
2018-11-22T01:11:56.112Z,-0.80
2018-11-22T01:14:37.592Z,-0.90
2018-11-22T01:17:18.681Z,-1.40
2018-11-22T01:20:00.100Z,-0.80
2018-11-22T01:22:41.323Z,-0.60
2018-11-22T01:25:23.038Z,-0.90
2018-11-22T01:28:03.925Z,-0.90
2018-11-22T01:30:45.302Z,-1.00
2018-11-22T01:33:26.477Z,-0.80
2018-11-22T01:36:07.657Z,-0.80
2018-11-22T01:38:49.068Z,-0.90
2018-11-22T01:41:29.938Z,-0.90
2018-11-22T01:44:11.121Z,-0.80
2018-11-22T01:46:52.669Z,-1.70
2018-11-22T01:49:33.769Z,-0.60
2018-11-22T01:52:15.128Z,-0.50
2018-11-22T01:54:56.357Z,-0.40
2018-11-22T01:57:37.433Z,-0.70
2018-11-22T02:03:28.426Z,-0.30
2018-11-22T02:06:09.905Z,-0.30
2018-11-22T02:08:51.114Z,-0.30
2018-11-22T02:11:21.827Z,-0.20
2018-11-22T02:13:53.552Z,0.00
2018-11-22T02:16:24.003Z,0.20
2018-11-22T02:18:54.602Z,0.00
2018-11-22T02:21:24.993Z,0.00
2018-11-22T02:23:55.441Z,0.00
2018-11-22T02:26:26.515Z,0.00
2018-11-22T02:28:57.101Z,0.20
2018-11-22T02:31:27.176Z,0.30
2018-11-22T02:34:00.517Z,0.30
2018-11-22T02:36:30.585Z,0.40
2018-11-22T02:39:01.553Z,0.40
2018-11-22T02:41:32.225Z,0.50
2018-11-22T02:44:03.070Z,0.50
2018-11-22T02:46:33.521Z,0.50
2018-11-22T02:49:06.174Z,0.50
2018-11-22T02:51:36.915Z,0.40
2018-11-22T02:54:07.203Z,0.40
2018-11-22T02:56:37.586Z,0.30
2018-11-22T02:59:07.910Z,0.30
2018-11-22T03:01:39.206Z,0.20
2018-11-22T03:04:09.837Z,0.20
2018-11-22T03:06:40.794Z,0.10
2018-11-22T03:09:12.911Z,0.10
2018-11-22T03:11:43.211Z,-0.10
2018-11-22T03:14:13.940Z,-0.30
2018-11-22T03:16:44.633Z,-0.50
2018-11-22T03:19:16.819Z,-0.50
2018-11-22T03:21:46.858Z,-0.60
2018-11-22T03:24:17.502Z,-0.70
2018-11-22T03:26:49.243Z,-0.90
2018-11-22T03:29:19.931Z,-1.10
2018-11-22T03:31:50.321Z,-1.10
2018-11-22T03:34:20.963Z,-1.30
2018-11-22T03:36:51.345Z,-1.40
2018-11-22T03:39:21.826Z,-1.50
2018-11-22T03:41:52.485Z,-1.50
2018-11-22T03:44:23.924Z,-1.60
2018-11-22T03:46:54.901Z,-1.60
2018-11-22T03:49:25.916Z,-1.70
2018-11-22T03:51:55.904Z,-1.60
2018-11-22T03:54:29.073Z,-1.70
2018-11-22T03:57:00.170Z,-1.70
2018-11-22T03:59:30.953Z,-1.70
2018-11-22T04:02:01.322Z,-1.70
2018-11-22T04:04:32.440Z,-1.70
2018-11-22T04:07:02.869Z,-1.60
2018-11-22T04:09:33.320Z,-1.70
2018-11-22T04:12:03.676Z,-1.70
2018-11-22T04:14:33.871Z,-1.80
2018-11-22T04:17:05.878Z,-1.90
2018-11-22T04:19:36.207Z,-1.90
2018-11-22T04:22:07.052Z,-2.00
2018-11-22T04:24:38.382Z,-2.00
2018-11-22T04:27:09.176Z,-2.00
2018-11-22T04:29:39.974Z,-2.10
2018-11-22T04:32:10.675Z,-2.10
2018-11-22T04:34:41.786Z,-2.20
2018-11-22T04:37:13.176Z,-2.10
2018-11-22T04:39:43.613Z,-2.10
2018-11-22T04:42:14.320Z,-2.10
2018-11-22T04:44:47.411Z,-2.00
2018-11-22T04:47:17.794Z,-1.90
2018-11-22T04:49:48.549Z,-1.80
2018-11-22T04:52:19.673Z,-1.80
2018-11-22T04:54:50.443Z,-1.70
2018-11-22T04:57:20.929Z,-1.70
2018-11-22T04:59:51.438Z,-1.60
2018-11-22T05:02:22.473Z,-1.60
2018-11-22T05:04:52.448Z,-1.50
2018-11-22T05:07:22.785Z,0.00
2018-11-22T05:09:53.041Z,-1.40
2018-11-22T05:12:24.271Z,-1.40
2018-11-22T05:14:55.173Z,-1.30
2018-11-22T05:17:25.698Z,-1.20
2018-11-22T05:19:56.097Z,-1.20
2018-11-22T05:22:27.138Z,-1.20
2018-11-22T05:24:59.535Z,-1.10
2018-11-22T05:27:31.112Z,-1.00
2018-11-22T05:30:01.629Z,-0.90
2018-11-22T05:32:35.297Z,-1.00
2018-11-22T05:35:03.046Z,-1.00
2018-11-22T05:37:34.543Z,-1.10
2018-11-22T05:40:04.970Z,-1.10
2018-11-22T05:42:35.112Z,-1.00
2018-11-22T05:45:05.663Z,-1.00
2018-11-22T05:47:36.714Z,-1.10
2018-11-22T05:50:08.782Z,-1.20
2018-11-22T05:52:40.078Z,-1.10
2018-11-22T05:55:13.648Z,-1.30
2018-11-22T05:57:44.584Z,-1.40
2018-11-22T06:00:27.932Z,-1.50
2018-11-22T06:02:59.912Z,-1.50
2018-11-22T06:05:32.737Z,-1.60
2018-11-22T06:08:03.033Z,-1.50
2018-11-22T06:10:35.715Z,-1.30
2018-11-22T06:13:08.209Z,-1.20
2018-11-22T06:15:39.405Z,-1.30
2018-11-22T06:18:10.478Z,-1.40
2018-11-22T06:20:41.967Z,-1.50
2018-11-22T06:23:13.181Z,-1.50
2018-11-22T06:25:44.350Z,-1.50
2018-11-22T06:28:15.797Z,-1.60
2018-11-22T06:30:46.704Z,-1.60
2018-11-22T06:33:16.641Z,-1.70
2018-11-22T06:35:47.604Z,-1.80
2018-11-22T06:38:18.508Z,-1.80
2018-11-22T06:40:49.173Z,-1.80
2018-11-22T06:43:20.424Z,-1.90
2018-11-22T06:45:51.122Z,-1.90
2018-11-22T06:48:21.873Z,-1.90
2018-11-22T06:50:52.449Z,-1.90
2018-11-22T06:53:23.076Z,-1.90
2018-11-22T06:55:54.604Z,-1.90
2018-11-22T06:58:26.101Z,-1.90
2018-11-22T07:00:56.029Z,-1.90
2018-11-22T07:03:27.254Z,-1.80
2018-11-22T07:05:58.048Z,-1.80
2018-11-22T07:08:28.370Z,-1.80
2018-11-22T07:10:59.740Z,-1.80
2018-11-22T07:13:30.524Z,-1.90
2018-11-22T07:16:00.958Z,-1.80
2018-11-22T07:18:32.409Z,-1.80
2018-11-22T07:21:02.733Z,-1.70
2018-11-22T07:23:33.318Z,-1.70
2018-11-22T07:26:03.557Z,-1.60
2018-11-22T07:28:34.287Z,-1.50
2018-11-22T07:31:05.201Z,-1.40
2018-11-22T07:33:38.215Z,-1.30
2018-11-22T07:36:06.921Z,-1.10
2018-11-22T07:38:38.076Z,-0.80
2018-11-22T07:41:09.150Z,-0.80
2018-11-22T07:43:39.219Z,-0.70
2018-11-22T07:46:10.389Z,-0.60
2018-11-22T07:48:40.821Z,-0.50
2018-11-22T07:51:11.943Z,-0.40
2018-11-22T07:53:42.452Z,-0.50
2018-11-22T07:56:13.495Z,-0.50
2018-11-22T07:58:44.105Z,-0.40
2018-11-22T08:01:14.458Z,-0.20
2018-11-22T08:03:44.810Z,-0.20
2018-11-22T08:06:15.336Z,-0.20
2018-11-22T08:08:45.679Z,0.00
2018-11-22T08:11:16.324Z,0.10
2018-11-22T08:13:47.127Z,0.20
2018-11-22T08:16:17.492Z,0.40
2018-11-22T08:18:47.487Z,0.50
2018-11-22T08:21:20.111Z,0.50
2018-11-22T08:23:50.688Z,0.50
2018-11-22T08:26:21.004Z,0.60
2018-11-22T08:28:51.614Z,0.60
2018-11-22T08:31:22.253Z,0.70
2018-11-22T08:33:52.473Z,0.70
2018-11-22T08:36:22.780Z,0.80
2018-11-22T08:38:53.015Z,0.80
2018-11-22T08:41:23.445Z,0.80
2018-11-22T08:43:54.854Z,0.80
2018-11-22T08:46:25.757Z,0.80
2018-11-22T08:48:56.084Z,0.90
2018-11-22T08:51:26.088Z,1.00
2018-11-22T08:53:56.334Z,1.10
2018-11-22T08:56:26.756Z,1.10
2018-11-22T08:58:57.358Z,1.10
2018-11-22T09:01:27.473Z,1.20
2018-11-22T09:03:58.350Z,1.10
2018-11-22T09:06:28.851Z,1.20
2018-11-22T09:09:00.057Z,1.30
2018-11-22T09:11:30.992Z,1.40
2018-11-22T09:14:01.318Z,1.50
2018-11-22T09:16:31.604Z,1.60
2018-11-22T09:19:02.450Z,1.70
2018-11-22T09:21:33.560Z,1.90
2018-11-22T09:24:03.984Z,1.90
2018-11-22T09:26:35.665Z,2.00
2018-11-22T09:29:06.816Z,2.10
2018-11-22T09:31:37.514Z,2.10
2018-11-22T09:34:08.358Z,2.20
2018-11-22T09:36:39.227Z,2.20
2018-11-22T09:39:12.950Z,2.30
2018-11-22T09:41:43.398Z,2.40
2018-11-22T09:44:13.680Z,2.40
2018-11-22T09:46:47.429Z,2.40
2018-11-22T09:49:18.162Z,2.40
2018-11-22T09:51:48.413Z,2.30
2018-11-22T09:54:19.019Z,2.30
2018-11-22T09:56:49.258Z,2.40
2018-11-22T09:59:20.286Z,2.30
2018-11-22T10:01:51.716Z,2.10
2018-11-22T10:04:22.634Z,2.00
2018-11-22T10:06:54.069Z,2.10
2018-11-22T10:09:25.137Z,2.20
2018-11-22T10:11:55.905Z,2.20
2018-11-22T10:14:27.002Z,2.20
2018-11-22T10:16:57.582Z,2.30
2018-11-22T10:19:27.645Z,2.30
2018-11-22T10:21:58.884Z,2.30
2018-11-22T10:24:30.685Z,2.30
2018-11-22T10:27:02.207Z,2.30
2018-11-22T10:29:33.867Z,2.30
2018-11-22T12:17:46.705Z,8.10
2018-11-22T12:20:15.924Z,8.10
2018-11-22T12:22:45.827Z,7.90
2018-11-22T12:25:15.575Z,7.60
2018-11-22T12:27:45.066Z,7.40
2018-11-22T12:30:16.263Z,7.30
2018-11-22T12:32:46.731Z,7.30
2018-11-22T12:35:20.509Z,7.40
2018-11-22T12:37:54.300Z,7.70
2018-11-22T12:40:22.803Z,7.90
2018-11-22T12:42:51.271Z,8.10
2018-11-22T12:45:19.734Z,7.70
2018-11-22T12:47:48.226Z,7.60
2018-11-22T12:50:16.679Z,7.20
2018-11-22T12:52:45.159Z,6.90
2018-11-22T12:55:15.842Z,6.80
2018-11-22T12:57:44.324Z,6.90
2018-11-22T13:00:14.710Z,7.20
2018-11-22T13:02:43.523Z,7.40
2018-11-22T13:05:13.553Z,7.70
2018-11-22T13:07:42.316Z,8.20
2018-11-22T13:10:13.467Z,8.30
2018-11-22T13:12:43.070Z,8.00
2018-11-22T13:15:13.528Z,7.90
2018-11-22T13:17:42.052Z,8.30
2018-11-22T13:20:12.841Z,8.40
2018-11-22T13:22:41.323Z,8.20
2018-11-22T13:25:12.443Z,8.30
2018-11-22T13:27:41.065Z,8.30
2018-11-22T13:30:12.266Z,8.60
2018-11-22T13:32:40.739Z,8.40
2018-11-22T13:35:10.455Z,8.40
2018-11-22T13:37:38.936Z,8.20
2018-11-22T13:40:09.178Z,8.40
2018-11-22T13:42:37.903Z,8.30
2018-11-22T13:45:09.901Z,8.70
2018-11-22T13:47:39.759Z,8.50
2018-11-22T13:50:10.667Z,8.10
2018-11-22T13:52:40.075Z,8.30
2018-11-22T13:55:08.581Z,8.50
2018-11-22T13:57:37.831Z,8.50
2018-11-22T14:00:10.546Z,8.80
2018-11-22T14:02:39.282Z,8.50
2018-11-22T14:05:11.520Z,8.10
2018-11-22T14:07:37.584Z,7.70
2018-11-22T14:10:09.341Z,7.70
2018-11-22T14:12:37.914Z,7.90
2018-11-22T14:15:10.784Z,8.10
2018-11-22T14:17:39.355Z,8.10
2018-11-22T14:20:09.948Z,8.10
2018-11-22T14:22:38.415Z,8.00
2018-11-22T14:25:07.846Z,8.20
2018-11-22T14:27:36.479Z,8.40
2018-11-22T14:30:06.719Z,8.20
2018-11-22T14:32:35.164Z,8.10
2018-11-22T14:35:03.721Z,8.10
2018-11-22T14:37:32.162Z,7.60
2018-11-22T14:40:00.619Z,7.10
2018-11-22T14:42:29.097Z,6.90
2018-11-22T14:44:57.798Z,6.70
2018-11-22T14:47:26.339Z,6.50
2018-11-22T14:49:54.811Z,6.50
2018-11-22T14:52:23.360Z,6.40
2018-11-22T14:54:51.915Z,6.60
2018-11-22T14:57:20.393Z,6.60
2018-11-22T14:59:48.847Z,6.60
2018-11-22T15:02:17.468Z,6.30
2018-11-22T15:04:45.960Z,6.00
2018-11-22T15:07:14.439Z,5.80
2018-11-22T15:09:42.912Z,5.60
2018-11-22T15:12:11.359Z,5.50
2018-11-22T15:14:39.786Z,5.40
2018-11-22T15:17:09.800Z,5.30
2018-11-22T15:19:38.919Z,5.20
2018-11-22T15:22:07.394Z,5.10
2018-11-22T15:24:35.879Z,5.00
2018-11-22T15:27:04.426Z,4.80
2018-11-22T15:29:32.973Z,4.70
2018-11-22T15:32:01.459Z,4.50
2018-11-22T15:34:29.891Z,4.40
2018-11-22T15:36:58.393Z,4.30
2018-11-22T15:39:26.868Z,4.20
2018-11-22T15:41:55.330Z,4.30
2018-11-22T15:44:24.644Z,4.30
2018-11-22T15:46:53.179Z,4.30
2018-11-22T15:49:22.319Z,4.30
2018-11-22T15:51:50.772Z,4.30
2018-11-22T15:54:20.180Z,4.20
2018-11-22T15:56:48.676Z,4.10
2018-11-22T15:59:17.115Z,3.90
2018-11-22T16:01:45.622Z,4.00
2018-11-22T16:04:14.090Z,3.80
2018-11-22T16:06:43.361Z,3.70
2018-11-22T16:09:12.238Z,3.60
2018-11-22T16:11:40.754Z,3.90
2018-11-22T16:14:10.728Z,3.80
2018-11-22T16:16:40.117Z,3.70
2018-11-22T16:19:08.595Z,3.70
2018-11-22T16:21:37.079Z,3.50
2018-11-22T16:24:05.813Z,3.30
2018-11-22T16:26:34.265Z,3.20
2018-11-22T16:29:02.778Z,3.20
2018-11-22T16:31:31.283Z,3.20
2018-11-22T16:33:59.783Z,3.10
2018-11-22T16:36:28.264Z,2.90
2018-11-22T16:38:56.705Z,2.80
2018-11-22T16:41:25.170Z,2.70
2018-11-22T16:43:54.239Z,2.70
2018-11-22T16:46:22.723Z,2.80
2018-11-22T16:48:51.240Z,2.80
2018-11-22T16:51:19.735Z,2.70
2018-11-22T16:53:48.207Z,2.70
2018-11-22T16:56:16.681Z,2.60
2018-11-22T16:58:45.184Z,2.70
2018-11-22T17:01:13.683Z,2.90
2018-11-22T17:03:42.193Z,3.00
2018-11-22T17:06:10.654Z,3.00
2018-11-22T17:08:39.122Z,3.10
2018-11-22T17:11:07.591Z,3.10
2018-11-22T17:13:36.151Z,3.20
2018-11-22T17:16:05.934Z,3.30
2018-11-22T17:18:34.524Z,3.40
2018-11-22T17:21:03.057Z,3.40
2018-11-22T17:23:31.572Z,3.50
2018-11-22T17:26:00.087Z,3.40
2018-11-22T17:28:29.552Z,3.40
2018-11-22T17:30:58.036Z,3.40
2018-11-22T17:33:26.915Z,3.30
2018-11-22T17:35:55.442Z,3.30
2018-11-22T17:38:23.939Z,3.20
2018-11-22T17:40:52.896Z,3.10
2018-11-22T17:43:21.768Z,3.00
2018-11-22T17:45:51.439Z,2.90
2018-11-22T17:48:19.934Z,2.80
2018-11-22T17:50:48.944Z,2.70
2018-11-22T17:53:17.424Z,2.80
2018-11-22T17:55:45.923Z,2.70
2018-11-22T17:58:14.971Z,2.60
2018-11-22T18:00:49.911Z,2.70
2018-11-22T18:03:18.674Z,2.70
2018-11-22T18:05:47.682Z,2.60
2018-11-22T18:08:16.979Z,2.40
2018-11-22T18:10:46.008Z,2.40
2018-11-22T18:13:14.495Z,2.40
2018-11-22T18:15:48.390Z,2.30
2018-11-22T18:18:16.907Z,2.20
2018-11-22T18:20:45.410Z,2.10
2018-11-22T18:23:14.191Z,2.10
2018-11-22T18:25:42.736Z,2.10
2018-11-22T18:28:11.964Z,2.10
2018-11-22T18:30:40.565Z,2.10
2018-11-22T18:33:09.553Z,2.00
2018-11-22T18:35:38.079Z,2.10
2018-11-22T18:38:06.970Z,2.00
2018-11-22T18:40:37.749Z,2.00
2018-11-22T18:43:06.333Z,1.90
2018-11-22T18:45:41.038Z,1.90
2018-11-22T18:48:11.463Z,1.80
2018-11-22T18:50:40.490Z,1.70
2018-11-22T18:53:09.133Z,1.60
2018-11-22T18:55:37.635Z,1.50
2018-11-22T18:58:07.222Z,1.50
2018-11-22T19:00:37.366Z,1.50
2018-11-22T19:03:09.731Z,1.60
2018-11-22T19:05:38.443Z,1.70
2018-11-22T19:08:06.987Z,1.70
2018-11-22T19:10:36.974Z,1.60
2018-11-22T19:13:07.131Z,1.60
2018-11-22T19:15:37.276Z,1.60
2018-11-22T19:18:08.187Z,1.60
2018-11-22T19:20:38.182Z,1.40
2018-11-22T19:23:07.789Z,1.30
2018-11-22T19:25:36.222Z,1.10
2018-11-22T19:28:05.383Z,0.90
2018-11-22T19:30:37.324Z,0.70
2018-11-22T19:33:06.127Z,0.60
2018-11-22T19:35:36.218Z,0.50
2018-11-22T19:38:05.071Z,0.50
2018-11-22T19:40:35.277Z,0.40
2018-11-22T19:43:05.055Z,0.30
2018-11-22T19:45:35.178Z,0.30
2018-11-22T19:48:06.517Z,0.30
2018-11-22T19:50:35.173Z,0.20
2018-11-22T19:53:05.758Z,0.10
2018-11-22T19:55:38.961Z,0.10
2018-11-22T19:58:09.950Z,0.00
2018-11-22T20:00:38.463Z,0.00
2018-11-22T20:03:07.657Z,-0.10
2018-11-22T20:05:37.432Z,-0.20
2018-11-22T20:08:08.472Z,-0.20
2018-11-22T20:10:39.549Z,-0.20
2018-11-22T20:13:09.135Z,-0.20
2018-11-22T20:15:37.666Z,-0.10
2018-11-22T20:18:08.019Z,-0.10
2018-11-22T20:20:36.527Z,-0.20
2018-11-22T20:23:05.050Z,-0.10
2018-11-22T20:25:34.063Z,-0.10
2018-11-22T20:28:02.486Z,-0.10
2018-11-22T20:30:33.331Z,-0.20
2018-11-22T20:33:01.980Z,-0.20
2018-11-22T20:35:31.205Z,-0.30
2018-11-22T20:37:59.713Z,-0.30
2018-11-22T20:40:28.647Z,-0.40
2018-11-22T20:42:58.146Z,-0.50
2018-11-22T20:45:27.255Z,-0.60
2018-11-22T20:47:57.472Z,-0.60
2018-11-22T20:50:26.966Z,-0.60
2018-11-22T20:52:55.434Z,-0.60
2018-11-22T20:55:27.325Z,-0.70
2018-11-22T20:57:57.108Z,-0.70
2018-11-22T21:00:27.028Z,-0.80
2018-11-22T21:02:55.499Z,-0.90
2018-11-22T21:05:24.655Z,-0.90
2018-11-22T21:07:53.164Z,-1.00
2018-11-22T21:10:22.910Z,-1.00
2018-11-22T21:12:51.388Z,-1.10
2018-11-22T21:15:21.911Z,-3.20
2018-11-22T21:17:51.857Z,-1.10
2018-11-22T21:20:22.085Z,-1.20
2018-11-22T21:22:51.186Z,-1.20
2018-11-22T21:25:20.444Z,-1.20
2018-11-22T21:27:48.989Z,-1.20
2018-11-22T21:30:22.255Z,-1.30
2018-11-22T21:32:51.185Z,-1.30
2018-11-22T21:35:20.017Z,-1.30
2018-11-22T21:37:49.300Z,-1.20
2018-11-22T21:40:18.607Z,-1.20
2018-11-22T21:42:47.896Z,-1.30
2018-11-22T21:45:19.494Z,-1.30
2018-11-22T21:47:48.730Z,-1.30
2018-11-22T21:50:19.268Z,-1.40
2018-11-22T21:52:47.742Z,-1.40
2018-11-22T21:55:22.076Z,-1.40
2018-11-22T21:57:51.235Z,-1.40
2018-11-22T22:00:25.034Z,-1.40
2018-11-22T22:02:56.212Z,-1.50
2018-11-22T22:05:24.783Z,-1.40
2018-11-22T22:07:53.523Z,-1.40
2018-11-22T22:10:22.514Z,-1.40
2018-11-22T22:12:51.301Z,-1.30
2018-11-22T22:15:24.218Z,-1.40
2018-11-22T22:17:52.687Z,-1.40
2018-11-22T22:20:22.524Z,-1.50
2018-11-22T22:22:51.001Z,-1.60
2018-11-22T22:25:20.600Z,-1.60
2018-11-22T22:27:49.677Z,-1.60
2018-11-22T22:30:20.527Z,-1.50
2018-11-22T22:32:50.022Z,-1.40
2018-11-22T22:35:18.498Z,-1.40
2018-11-22T22:37:46.959Z,-1.40
2018-11-22T22:40:19.743Z,-1.20
2018-11-22T22:42:48.933Z,-1.10
2018-11-22T22:45:18.546Z,-1.00
2018-11-22T22:47:47.722Z,-1.10
2018-11-22T22:50:19.339Z,-1.10
2018-11-22T22:52:48.980Z,-1.20
2018-11-22T22:55:17.204Z,-1.20
2018-11-22T22:57:45.846Z,-1.20
2018-11-22T23:00:22.211Z,-1.30
2018-11-22T23:02:52.328Z,-1.50
2018-11-22T23:05:21.554Z,-1.60
2018-11-22T23:07:50.019Z,-1.70
2018-11-22T23:10:19.200Z,-1.70
2018-11-22T23:12:47.674Z,-1.70
2018-11-22T23:15:16.978Z,-1.80
2018-11-22T23:17:45.617Z,-1.80
2018-11-22T23:20:19.882Z,-1.80
2018-11-22T23:22:48.790Z,-1.80
2018-11-22T23:25:18.395Z,-1.80
2018-11-22T23:27:46.857Z,-1.90
2018-11-22T23:30:19.027Z,-1.90
2018-11-22T23:32:49.483Z,-1.90
2018-11-22T23:35:18.231Z,-2.00
2018-11-22T23:37:47.056Z,-1.90
2018-11-22T23:40:16.863Z,-1.90
2018-11-22T23:42:45.471Z,-2.00
2018-11-22T23:45:15.209Z,-2.00
2018-11-22T23:47:44.131Z,-2.00
2018-11-22T23:50:15.759Z,-2.00
2018-11-22T23:52:45.395Z,-2.00
2018-11-22T23:55:13.835Z,-2.00
2018-11-22T23:57:42.283Z,-2.00
